createdAt,value
2023-02-08T00:00:12.458Z,93.99
2023-02-08T00:01:12.464Z,94.37
2023-02-08T00:02:12.446Z,94.08
2023-02-08T00:03:12.456Z,94.37
2023-02-08T00:04:12.444Z,94.27
2023-02-08T00:05:12.453Z,94.27
2023-02-08T00:06:12.442Z,93.99
2023-02-08T00:07:12.449Z,94.27
2023-02-08T00:08:12.447Z,93.99
2023-02-08T00:09:12.446Z,93.99
2023-02-08T00:10:12.439Z,94.18
2023-02-08T00:11:12.459Z,94.18
2023-02-08T00:12:12.440Z,93.99
2023-02-08T00:13:12.443Z,94.18
2023-02-08T00:14:12.435Z,94.27
2023-02-08T00:15:12.453Z,94.08
2023-02-08T00:16:12.551Z,94.18
2023-02-08T00:17:12.427Z,94.37
2023-02-08T00:18:12.438Z,94.27
2023-02-08T00:19:12.430Z,94.18
2023-02-08T00:20:12.431Z,93.80
2023-02-08T00:21:12.422Z,93.42
2023-02-08T00:22:12.428Z,93.42
2023-02-08T00:23:12.418Z,93.61
2023-02-08T00:24:12.426Z,93.23
2023-02-08T00:25:12.423Z,94.08
2023-02-08T00:26:12.416Z,93.42
2023-02-08T00:27:12.417Z,93.61
2023-02-08T00:28:12.450Z,93.42
2023-02-08T00:29:12.428Z,93.42
2023-02-08T00:30:12.431Z,93.23
2023-02-08T00:31:12.639Z,93.70
2023-02-08T00:32:12.412Z,93.80
2023-02-08T00:33:12.408Z,93.23
2023-02-08T00:34:12.406Z,93.23
2023-02-08T00:35:12.399Z,93.42
2023-02-08T00:36:12.403Z,93.13
2023-02-08T00:37:12.396Z,93.61
2023-02-08T00:38:12.402Z,93.61
2023-02-08T00:39:12.399Z,93.32
2023-02-08T00:40:12.404Z,93.32
2023-02-08T00:41:12.389Z,93.42
2023-02-08T00:42:12.392Z,93.42
2023-02-08T00:43:12.392Z,93.61
2023-02-08T00:44:12.392Z,93.51
2023-02-08T00:45:12.392Z,93.32
2023-02-08T00:46:12.574Z,93.42
2023-02-08T00:47:12.405Z,93.23
2023-02-08T00:48:12.389Z,93.51
2023-02-08T00:49:12.377Z,93.32
2023-02-08T00:50:12.376Z,93.89
2023-02-08T00:51:12.378Z,93.23
2023-02-08T00:52:12.380Z,93.32
2023-02-08T00:53:12.379Z,93.70
2023-02-08T00:54:12.382Z,93.13
2023-02-08T00:55:12.372Z,93.13
2023-02-08T00:56:12.374Z,93.51
2023-02-08T00:57:12.363Z,93.61
2023-02-08T00:58:12.368Z,93.70
2023-02-08T00:59:12.358Z,93.13
2023-02-08T01:00:12.358Z,93.51
2023-02-08T01:01:12.451Z,93.42
2023-02-08T01:02:12.467Z,94.08
2023-02-08T01:03:12.377Z,93.89
2023-02-08T01:04:12.360Z,93.70
2023-02-08T01:05:12.349Z,93.61
2023-02-08T01:06:12.350Z,93.42
2023-02-08T01:07:12.346Z,93.61
2023-02-08T01:08:12.354Z,93.42
2023-02-08T01:09:12.343Z,93.61
2023-02-08T01:10:12.478Z,93.61
2023-02-08T01:11:12.340Z,93.61
2023-02-08T01:12:12.348Z,93.18
2023-02-08T01:13:12.344Z,93.09
2023-02-08T01:14:12.339Z,93.37
2023-02-08T01:15:12.334Z,93.47
2023-02-08T01:16:12.397Z,93.37
2023-02-08T01:17:12.332Z,93.75
2023-02-08T01:18:12.332Z,93.66
2023-02-08T01:19:12.420Z,93.84
2023-02-08T01:20:12.335Z,93.37
2023-02-08T01:21:12.354Z,93.37
2023-02-08T01:22:12.348Z,93.94
2023-02-08T01:23:12.325Z,93.84
2023-02-08T01:24:12.332Z,94.13
2023-02-08T01:25:12.321Z,93.84
2023-02-08T01:26:12.316Z,94.22
2023-02-08T01:27:12.325Z,94.32
2023-02-08T01:28:12.412Z,95.03
2023-02-08T01:29:12.318Z,94.93
2023-02-08T01:30:12.310Z,94.27
2023-02-08T01:31:12.392Z,94.56
2023-02-08T01:32:12.326Z,94.56
2023-02-08T01:33:12.308Z,94.37
2023-02-08T01:34:12.307Z,94.56
2023-02-08T01:35:12.336Z,94.56
2023-02-08T01:36:12.301Z,94.56
2023-02-08T01:37:12.304Z,94.27
2023-02-08T01:38:12.307Z,93.99
2023-02-08T01:39:12.307Z,94.27
2023-02-08T01:40:12.296Z,94.27
2023-02-08T01:41:12.302Z,94.37
2023-02-08T01:42:12.294Z,94.32
2023-02-08T01:43:12.290Z,94.03
2023-02-08T01:44:12.306Z,94.27
2023-02-08T01:45:12.295Z,94.56
2023-02-08T01:46:12.294Z,94.56
2023-02-08T01:47:12.292Z,93.89
2023-02-08T01:48:12.283Z,94.22
2023-02-08T01:49:12.280Z,94.46
2023-02-08T01:50:12.284Z,94.32
2023-02-08T01:51:12.306Z,94.03
2023-02-08T01:52:12.284Z,94.13
2023-02-08T01:53:12.276Z,94.03
2023-02-08T01:54:12.286Z,93.84
2023-02-08T01:55:12.278Z,94.22
2023-02-08T01:56:12.270Z,94.79
2023-02-08T01:57:12.273Z,94.79
2023-02-08T01:58:12.272Z,95.12
2023-02-08T01:59:12.272Z,94.37
2023-02-08T02:00:12.267Z,94.27
2023-02-08T02:01:12.315Z,94.41
2023-02-08T02:02:12.264Z,93.94
2023-02-08T02:03:12.266Z,94.22
2023-02-08T02:04:12.269Z,94.13
2023-02-08T02:05:12.265Z,94.32
2023-02-08T02:06:12.252Z,94.13
2023-02-08T02:07:12.278Z,94.32
2023-02-08T02:08:12.259Z,94.13
2023-02-08T02:09:12.254Z,94.22
2023-02-08T02:10:12.254Z,94.22
2023-02-08T02:11:12.252Z,93.94
2023-02-08T02:12:12.246Z,94.03
2023-02-08T02:13:12.249Z,94.60
2023-02-08T02:14:12.242Z,94.32
2023-02-08T02:15:12.251Z,94.70
2023-02-08T02:16:12.272Z,94.98
2023-02-08T02:17:12.236Z,94.98
2023-02-08T02:18:12.235Z,94.32
2023-02-08T02:19:12.236Z,94.13
2023-02-08T02:20:12.239Z,94.41
2023-02-08T02:21:12.243Z,94.13
2023-02-08T02:22:12.229Z,94.22
2023-02-08T02:23:12.245Z,94.22
2023-02-08T02:24:12.225Z,94.22
2023-02-08T02:25:12.232Z,94.60
2023-02-08T02:26:12.221Z,94.32
2023-02-08T02:27:12.236Z,94.13
2023-02-08T02:28:12.273Z,94.60
2023-02-08T02:29:12.218Z,94.60
2023-02-08T02:30:12.222Z,94.41
2023-02-08T02:31:12.224Z,94.41
2023-02-08T02:32:12.212Z,94.32
2023-02-08T02:33:12.213Z,94.41
2023-02-08T02:34:12.207Z,94.98
2023-02-08T02:35:12.216Z,94.79
2023-02-08T02:36:12.214Z,94.79
2023-02-08T02:37:12.217Z,94.70
2023-02-08T02:38:12.208Z,94.89
2023-02-08T02:39:12.229Z,95.07
2023-02-08T02:40:12.197Z,94.89
2023-02-08T02:41:12.196Z,94.70
2023-02-08T02:42:12.196Z,94.79
2023-02-08T02:43:12.209Z,94.60
2023-02-08T02:44:12.224Z,94.98
2023-02-08T02:45:12.189Z,94.79
2023-02-08T02:46:12.296Z,94.70
2023-02-08T02:47:12.196Z,94.89
2023-02-08T02:48:12.210Z,95.17
2023-02-08T02:49:12.185Z,95.07
2023-02-08T02:50:12.191Z,94.98
2023-02-08T02:51:12.187Z,94.51
2023-02-08T02:52:12.195Z,94.79
2023-02-08T02:53:12.185Z,94.70
2023-02-08T02:54:12.184Z,95.64
2023-02-08T02:55:12.195Z,95.26
2023-02-08T02:56:12.190Z,95.26
2023-02-08T02:57:12.185Z,95.45
2023-02-08T02:58:12.182Z,95.17
2023-02-08T02:59:12.173Z,95.45
2023-02-08T03:00:12.183Z,95.03
2023-02-08T03:01:12.198Z,95.45
2023-02-08T03:02:12.167Z,94.89
2023-02-08T03:03:12.166Z,94.79
2023-02-08T03:04:12.232Z,95.07
2023-02-08T03:05:12.164Z,94.84
2023-02-08T03:06:12.170Z,94.98
2023-02-08T03:07:12.159Z,94.32
2023-02-08T03:08:12.164Z,94.98
2023-02-08T03:09:12.163Z,94.32
2023-02-08T03:10:12.176Z,94.89
2023-02-08T03:11:12.182Z,95.45
2023-02-08T03:12:12.160Z,95.17
2023-02-08T03:13:12.150Z,95.36
2023-02-08T03:14:12.150Z,95.17
2023-02-08T03:15:12.151Z,94.98
2023-02-08T03:16:12.161Z,95.31
2023-02-08T03:17:12.142Z,95.40
2023-02-08T03:18:12.156Z,95.45
2023-02-08T03:19:12.161Z,95.36
2023-02-08T03:20:12.139Z,94.98
2023-02-08T03:21:12.155Z,95.17
2023-02-08T03:22:12.136Z,95.07
2023-02-08T03:23:12.147Z,94.79
2023-02-08T03:24:12.153Z,94.79
2023-02-08T03:25:12.132Z,94.41
2023-02-08T03:26:12.140Z,94.89
2023-02-08T03:27:12.153Z,94.79
2023-02-08T03:28:12.194Z,95.17
2023-02-08T03:29:12.129Z,94.89
2023-02-08T03:30:12.122Z,95.17
2023-02-08T03:31:12.296Z,95.17
2023-02-08T03:32:12.122Z,94.79
2023-02-08T03:33:12.119Z,94.79
2023-02-08T03:34:12.122Z,95.07
2023-02-08T03:35:12.114Z,94.70
2023-02-08T03:36:12.112Z,94.98
2023-02-08T03:37:12.129Z,95.26
2023-02-08T03:38:12.131Z,95.26
2023-02-08T03:39:12.117Z,95.36
2023-02-08T03:40:12.112Z,95.26
2023-02-08T03:41:12.111Z,95.26
2023-02-08T03:42:12.111Z,95.45
2023-02-08T03:43:12.137Z,95.45
2023-02-08T03:44:12.105Z,96.30
2023-02-08T03:45:12.119Z,96.11
2023-02-08T03:46:12.121Z,96.20
2023-02-08T03:47:12.099Z,96.11
2023-02-08T03:48:12.106Z,96.54
2023-02-08T03:49:12.100Z,95.68
2023-02-08T03:50:12.098Z,96.35
2023-02-08T03:51:12.087Z,96.54
2023-02-08T03:52:12.086Z,96.16
2023-02-08T03:53:12.090Z,96.25
2023-02-08T03:54:12.083Z,95.50
2023-02-08T03:55:12.079Z,95.50
2023-02-08T03:56:12.082Z,95.68
2023-02-08T03:57:12.080Z,95.40
2023-02-08T03:58:12.082Z,95.78
2023-02-08T03:59:12.092Z,95.40
2023-02-08T04:00:12.071Z,95.26
2023-02-08T04:01:12.109Z,95.17
2023-02-08T04:02:12.139Z,95.07
2023-02-08T04:03:12.069Z,95.17
2023-02-08T04:04:12.067Z,95.07
2023-02-08T04:05:12.067Z,95.45
2023-02-08T04:06:12.057Z,95.73
2023-02-08T04:07:12.063Z,95.54
2023-02-08T04:08:12.055Z,95.45
2023-02-08T04:09:12.064Z,95.45
2023-02-08T04:10:12.070Z,95.64
2023-02-08T04:11:12.049Z,95.45
2023-02-08T04:12:12.046Z,95.45
2023-02-08T04:13:12.054Z,95.45
2023-02-08T04:14:12.056Z,95.45
2023-02-08T04:15:12.062Z,95.45
2023-02-08T04:16:12.122Z,95.36
2023-02-08T04:17:12.038Z,95.36
2023-02-08T04:18:12.033Z,95.64
2023-02-08T04:19:12.034Z,95.64
2023-02-08T04:20:12.035Z,95.36
2023-02-08T04:21:12.030Z,95.36
2023-02-08T04:22:12.034Z,95.45
2023-02-08T04:23:12.034Z,95.54
2023-02-08T04:24:12.033Z,96.39
2023-02-08T04:25:12.029Z,96.30
2023-02-08T04:26:12.024Z,96.39
2023-02-08T04:27:12.026Z,95.54
2023-02-08T04:28:12.168Z,95.45
2023-02-08T04:29:12.026Z,95.64
2023-02-08T04:30:12.018Z,95.40
2023-02-08T04:31:12.242Z,95.36
2023-02-08T04:32:12.021Z,95.68
2023-02-08T04:33:12.012Z,95.68
2023-02-08T04:34:12.017Z,95.68
2023-02-08T04:35:12.023Z,95.40
2023-02-08T04:36:12.021Z,95.50
2023-02-08T04:37:12.017Z,95.68
2023-02-08T04:38:12.014Z,95.40
2023-02-08T04:39:12.010Z,95.40
2023-02-08T04:40:12.025Z,95.87
2023-02-08T04:41:12.007Z,95.68
2023-02-08T04:42:11.997Z,95.50
2023-02-08T04:43:12.009Z,95.59
2023-02-08T04:44:11.994Z,95.59
2023-02-08T04:45:12.009Z,95.50
2023-02-08T04:46:12.049Z,95.68
2023-02-08T04:47:12.025Z,95.68
2023-02-08T04:48:12.155Z,95.50
2023-02-08T04:49:11.990Z,95.78
2023-02-08T04:50:11.991Z,95.40
2023-02-08T04:51:11.986Z,95.31
2023-02-08T04:52:11.984Z,95.21
2023-02-08T04:53:11.982Z,95.31
2023-02-08T04:54:11.992Z,95.31
2023-02-08T04:55:11.979Z,95.50
2023-02-08T04:56:11.976Z,95.12
2023-02-08T04:57:11.984Z,95.03
2023-02-08T04:58:11.980Z,95.12
2023-02-08T04:59:11.981Z,95.21
2023-02-08T05:00:11.987Z,95.40
2023-02-08T05:01:11.970Z,95.21
2023-02-08T05:02:11.967Z,95.21
2023-02-08T05:03:11.985Z,95.68
2023-02-08T05:04:11.971Z,94.93
2023-02-08T05:05:12.027Z,95.59
2023-02-08T05:06:11.959Z,94.93
2023-02-08T05:07:11.954Z,94.74
2023-02-08T05:08:11.956Z,95.03
2023-02-08T05:09:11.952Z,94.84
2023-02-08T05:10:11.960Z,94.84
2023-02-08T05:11:11.949Z,94.46
2023-02-08T05:12:11.947Z,94.27
2023-02-08T05:13:11.943Z,94.46
2023-02-08T05:14:11.950Z,94.46
2023-02-08T05:15:11.939Z,94.74
2023-02-08T05:16:12.020Z,95.03
2023-02-08T05:17:11.940Z,95.17
2023-02-08T05:18:11.940Z,95.17
2023-02-08T05:19:11.958Z,95.07
2023-02-08T05:20:11.937Z,95.21
2023-02-08T05:21:11.939Z,94.60
2023-02-08T05:22:11.943Z,94.65
2023-02-08T05:23:11.932Z,94.70
2023-02-08T05:24:11.932Z,94.46
2023-02-08T05:25:11.932Z,94.56
2023-02-08T05:26:11.928Z,94.27
2023-02-08T05:27:11.925Z,94.27
2023-02-08T05:28:11.968Z,95.31
2023-02-08T05:29:11.918Z,95.40
2023-02-08T05:30:11.915Z,94.46
2023-02-08T05:31:12.002Z,94.74
2023-02-08T05:32:11.930Z,94.56
2023-02-08T05:33:11.917Z,94.93
2023-02-08T05:34:11.914Z,94.65
2023-02-08T05:35:11.940Z,94.84
2023-02-08T05:36:11.909Z,94.56
2023-02-08T05:37:11.903Z,94.84
2023-02-08T05:38:11.898Z,95.03
2023-02-08T05:39:11.904Z,94.74
2023-02-08T05:40:11.913Z,94.65
2023-02-08T05:41:11.900Z,93.99
2023-02-08T05:42:11.895Z,93.99
2023-02-08T05:43:11.895Z,94.60
2023-02-08T05:44:11.887Z,93.94
2023-02-08T05:45:11.894Z,94.03
2023-02-08T05:46:11.888Z,94.03
2023-02-08T05:47:11.892Z,94.22
2023-02-08T05:48:11.885Z,94.13
2023-02-08T05:49:11.879Z,94.41
2023-02-08T05:50:11.883Z,93.84
2023-02-08T05:51:11.898Z,93.94
2023-02-08T05:52:11.880Z,94.13
2023-02-08T05:53:11.876Z,94.22
2023-02-08T05:54:11.877Z,93.84
2023-02-08T05:55:11.885Z,94.51
2023-02-08T05:56:11.866Z,94.32
2023-02-08T05:57:11.868Z,94.79
2023-02-08T05:58:11.866Z,94.70
2023-02-08T05:59:11.865Z,94.60
2023-02-08T06:00:11.864Z,94.98
2023-02-08T06:01:11.865Z,94.98
2023-02-08T06:02:11.853Z,94.79
2023-02-08T06:03:11.936Z,94.79
2023-02-08T06:04:11.925Z,94.13
2023-02-08T06:05:11.853Z,94.89
2023-02-08T06:06:11.882Z,94.98
2023-02-08T06:07:11.861Z,94.89
2023-02-08T06:08:11.844Z,94.98
2023-02-08T06:09:11.843Z,94.98
2023-02-08T06:10:11.848Z,94.98
2023-02-08T06:11:11.843Z,94.79
2023-02-08T06:12:11.841Z,94.79
2023-02-08T06:13:11.833Z,95.12
2023-02-08T06:14:11.833Z,95.03
2023-02-08T06:15:11.833Z,94.37
2023-02-08T06:16:11.849Z,94.89
2023-02-08T06:17:11.832Z,94.46
2023-02-08T06:18:11.869Z,94.46
2023-02-08T06:19:11.823Z,94.46
2023-02-08T06:20:11.827Z,93.94
2023-02-08T06:21:11.822Z,94.32
2023-02-08T06:22:11.822Z,94.32
2023-02-08T06:23:11.835Z,94.41
2023-02-08T06:24:11.819Z,94.32
2023-02-08T06:25:11.818Z,94.32
2023-02-08T06:26:11.806Z,94.41
2023-02-08T06:27:11.814Z,94.13
2023-02-08T06:28:11.909Z,94.22
2023-02-08T06:29:11.807Z,94.03
2023-02-08T06:30:11.827Z,94.32
2023-02-08T06:31:11.815Z,93.84
2023-02-08T06:32:11.934Z,94.13
2023-02-08T06:33:13.393Z,94.51
2023-02-08T06:34:11.798Z,93.94
2023-02-08T06:35:11.801Z,94.13
2023-02-08T06:36:11.790Z,93.94
2023-02-08T06:37:11.798Z,94.51
2023-02-08T06:38:11.788Z,94.13
2023-02-08T06:39:11.807Z,94.32
2023-02-08T06:40:11.784Z,94.13
2023-02-08T06:41:11.784Z,94.32
2023-02-08T06:42:11.785Z,94.03
2023-02-08T06:43:11.786Z,93.56
2023-02-08T06:44:11.779Z,94.03
2023-02-08T06:45:13.666Z,93.66
2023-02-08T06:46:11.807Z,94.32
2023-02-08T06:47:11.779Z,94.13
2023-02-08T06:48:11.777Z,94.60
2023-02-08T06:49:11.776Z,94.22
2023-02-08T06:50:11.763Z,94.22
2023-02-08T06:51:11.764Z,94.41
2023-02-08T06:52:11.768Z,94.13
2023-02-08T06:53:11.760Z,94.13
2023-02-08T06:54:11.758Z,94.51
2023-02-08T06:55:11.778Z,93.84
2023-02-08T06:56:11.758Z,94.22
2023-02-08T06:57:11.758Z,94.22
2023-02-08T06:58:11.756Z,93.94
2023-02-08T06:59:11.759Z,94.03
2023-02-08T07:00:11.745Z,94.13
2023-02-08T07:01:11.773Z,94.22
2023-02-08T07:02:11.802Z,93.94
2023-02-08T07:03:11.740Z,94.60
2023-02-08T07:04:11.738Z,94.60
2023-02-08T07:05:11.743Z,94.70
2023-02-08T07:06:11.738Z,94.98
2023-02-08T07:07:11.749Z,94.79
2023-02-08T07:08:11.731Z,94.56
2023-02-08T07:09:11.731Z,94.74
2023-02-08T07:10:11.742Z,95.31
2023-02-08T07:11:11.751Z,94.74
2023-02-08T07:12:11.733Z,94.74
2023-02-08T07:13:11.731Z,94.84
2023-02-08T07:14:11.720Z,94.84
2023-02-08T07:15:11.722Z,94.84
2023-02-08T07:16:11.775Z,94.27
2023-02-08T07:17:11.722Z,94.27
2023-02-08T07:18:11.713Z,94.37
2023-02-08T07:19:11.725Z,94.37
2023-02-08T07:20:11.732Z,94.18
2023-02-08T07:21:11.723Z,94.08
2023-02-08T07:22:11.705Z,94.27
2023-02-08T07:23:11.706Z,94.18
2023-02-08T07:24:11.702Z,94.18
2023-02-08T07:25:11.715Z,94.27
2023-02-08T07:26:11.697Z,94.46
2023-02-08T07:27:11.718Z,94.37
2023-02-08T07:28:11.710Z,94.18
2023-02-08T07:29:11.703Z,94.27
2023-02-08T07:30:11.692Z,94.18
2023-02-08T07:31:11.692Z,94.37
2023-02-08T07:32:11.817Z,94.56
2023-02-08T07:33:11.703Z,93.99
2023-02-08T07:34:11.696Z,93.84
2023-02-08T07:35:11.690Z,94.18
2023-02-08T07:36:11.692Z,94.27
2023-02-08T07:37:11.699Z,94.74
2023-02-08T07:38:11.696Z,94.18
2023-02-08T07:39:11.683Z,94.37
2023-02-08T07:40:11.686Z,94.37
2023-02-08T07:41:11.685Z,94.18
2023-02-08T07:42:11.681Z,93.99
2023-02-08T07:43:11.704Z,94.03
2023-02-08T07:44:11.675Z,93.56
2023-02-08T07:45:11.677Z,94.37
2023-02-08T07:46:11.711Z,93.99
2023-02-08T07:47:11.676Z,94.27
2023-02-08T07:48:11.665Z,94.08
2023-02-08T07:49:11.673Z,94.27
2023-02-08T07:50:11.662Z,94.08
2023-02-08T07:51:11.670Z,94.08
2023-02-08T07:52:11.660Z,94.27
2023-02-08T07:53:11.659Z,94.27
2023-02-08T07:54:11.665Z,94.18
2023-02-08T07:55:11.666Z,94.37
2023-02-08T07:56:11.662Z,94.37
2023-02-08T07:57:11.661Z,94.27
2023-02-08T07:58:11.662Z,94.08
2023-02-08T07:59:11.670Z,94.32
2023-02-08T08:00:11.660Z,93.99
2023-02-08T08:01:21.822Z,94.18
2023-02-08T08:02:11.656Z,94.03
2023-02-08T08:03:11.650Z,94.37
2023-02-08T08:04:11.670Z,94.08
2023-02-08T08:05:11.681Z,93.99
2023-02-08T08:06:11.636Z,94.27
2023-02-08T08:07:11.644Z,94.84
2023-02-08T08:08:11.641Z,94.84
2023-02-08T08:09:11.646Z,94.65
2023-02-08T08:10:11.640Z,94.84
2023-02-08T08:11:11.630Z,94.84
2023-02-08T08:12:11.635Z,94.93
2023-02-08T08:13:11.635Z,94.65
2023-02-08T08:14:11.636Z,94.93
2023-02-08T08:15:11.642Z,94.27
2023-02-08T08:16:11.740Z,94.27
2023-02-08T08:17:12.019Z,93.99
2023-02-08T08:18:11.631Z,94.27
2023-02-08T08:19:11.640Z,94.46
2023-02-08T08:20:11.624Z,94.37
2023-02-08T08:21:11.628Z,94.27
2023-02-08T08:22:11.622Z,94.08
2023-02-08T08:23:11.624Z,94.46
2023-02-08T08:24:11.679Z,94.08
2023-02-08T08:25:11.612Z,94.08
2023-02-08T08:26:11.623Z,94.08
2023-02-08T08:27:11.608Z,93.89
2023-02-08T08:28:11.685Z,93.99
2023-02-08T08:29:11.608Z,93.99
2023-02-08T08:30:11.607Z,94.18
2023-02-08T08:31:11.838Z,94.18
2023-02-08T08:32:11.997Z,94.08
2023-02-08T08:33:11.606Z,94.27
2023-02-08T08:34:11.648Z,94.37
2023-02-08T08:35:11.615Z,94.37
2023-02-08T08:36:11.605Z,94.27
2023-02-08T08:37:11.596Z,93.89
2023-02-08T08:38:11.594Z,94.18
2023-02-08T08:39:11.599Z,93.99
2023-02-08T08:40:11.594Z,94.37
2023-02-08T08:41:11.591Z,93.99
2023-02-08T08:42:11.599Z,93.89
2023-02-08T08:43:11.601Z,93.99
2023-02-08T08:44:11.607Z,94.18
2023-02-08T08:45:11.622Z,94.18
2023-02-08T08:46:11.721Z,94.27
2023-02-08T08:47:11.611Z,94.18
2023-02-08T08:48:11.589Z,94.22
2023-02-08T08:49:11.590Z,94.22
2023-02-08T08:50:11.580Z,94.41
2023-02-08T08:51:11.585Z,94.22
2023-02-08T08:52:11.586Z,94.13
2023-02-08T08:53:11.578Z,93.94
2023-02-08T08:54:11.589Z,94.32
2023-02-08T08:55:11.575Z,94.13
2023-02-08T08:56:11.588Z,93.84
2023-02-08T08:57:11.574Z,93.84
2023-02-08T08:58:11.573Z,93.47
2023-02-08T08:59:11.571Z,93.37
2023-02-08T09:00:11.574Z,93.37
2023-02-08T09:01:11.570Z,93.56
2023-02-08T09:02:11.567Z,93.28
2023-02-08T09:03:11.682Z,93.84
2023-02-08T09:04:11.568Z,93.66
2023-02-08T09:05:11.582Z,93.37
2023-02-08T09:06:11.572Z,93.75
2023-02-08T09:07:11.569Z,93.56
2023-02-08T09:08:11.561Z,93.28
2023-02-08T09:09:11.569Z,93.56
2023-02-08T09:10:11.561Z,93.47
2023-02-08T09:11:11.568Z,92.99
2023-02-08T09:12:11.566Z,93.18
2023-02-08T09:13:11.625Z,93.37
2023-02-08T09:14:11.576Z,93.47
2023-02-08T09:15:11.556Z,93.37
2023-02-08T09:16:11.660Z,93.66
2023-02-08T09:17:11.563Z,93.66
2023-02-08T09:18:11.560Z,93.66
2023-02-08T09:19:11.618Z,93.66
2023-02-08T09:20:11.549Z,93.56
2023-02-08T09:21:11.561Z,93.37
2023-02-08T09:22:11.550Z,93.66
2023-02-08T09:23:11.548Z,93.66
2023-02-08T09:24:11.551Z,93.18
2023-02-08T09:25:11.558Z,93.37
2023-02-08T09:26:11.552Z,93.37
2023-02-08T09:27:11.547Z,92.99
2023-02-08T09:28:11.589Z,93.28
2023-02-08T09:29:11.546Z,93.04
2023-02-08T09:30:11.560Z,93.32
2023-02-08T09:31:11.662Z,93.32
2023-02-08T09:32:11.619Z,93.23
2023-02-08T09:33:11.545Z,93.04
2023-02-08T09:34:11.550Z,93.09
2023-02-08T09:35:11.580Z,93.56
2023-02-08T09:36:11.545Z,93.47
2023-02-08T09:37:11.552Z,93.37
2023-02-08T09:38:11.554Z,93.23
2023-02-08T09:39:11.552Z,92.52
2023-02-08T09:40:11.549Z,92.38
2023-02-08T09:41:11.554Z,91.90
2023-02-08T09:42:11.549Z,91.76
2023-02-08T09:43:11.556Z,90.91
2023-02-08T09:44:11.562Z,91.09
2023-02-08T09:45:11.560Z,90.91
2023-02-08T09:46:11.557Z,90.76
2023-02-08T09:47:11.559Z,90.29
2023-02-08T09:48:11.559Z,88.91
2023-02-08T09:49:11.563Z,88.06
2023-02-08T09:50:11.574Z,87.39
2023-02-08T09:51:11.601Z,87.01
2023-02-08T09:52:11.577Z,86.87
2023-02-08T09:53:11.575Z,86.01
2023-02-08T09:54:11.581Z,84.97
2023-02-08T09:55:11.581Z,83.92
2023-02-08T09:56:11.586Z,82.78
2023-02-08T09:57:11.592Z,82.03
2023-02-08T09:58:11.592Z,81.74
2023-02-08T09:59:11.599Z,81.55
2023-02-08T10:00:11.593Z,81.93
2023-02-08T10:01:11.623Z,80.98
2023-02-08T10:02:11.600Z,79.84
2023-02-08T10:03:11.624Z,79.42
2023-02-08T10:04:11.609Z,79.65
2023-02-08T10:05:11.634Z,78.99
2023-02-08T10:06:11.619Z,79.36
2023-02-08T10:07:11.650Z,79.27
2023-02-08T10:08:11.645Z,78.93
2023-02-08T10:09:11.668Z,78.74
2023-02-08T10:10:11.640Z,78.64
2023-02-08T10:11:11.641Z,78.02
2023-02-08T10:12:11.643Z,78.02
2023-02-08T10:13:15.290Z,77.98
2023-02-08T10:14:11.662Z,77.98
2023-02-08T10:15:12.469Z,77.51
2023-02-08T10:16:11.702Z,77.31
2023-02-08T10:17:11.676Z,76.75
2023-02-08T10:18:11.689Z,76.23
2023-02-08T10:19:11.677Z,76.04
2023-02-08T10:20:11.680Z,76.04
2023-02-08T10:24:27.650Z,75.59
2023-02-08T10:25:27.636Z,75.31
2023-02-08T10:26:27.634Z,75.40
2023-02-08T10:27:27.654Z,75.40
2023-02-08T10:28:27.681Z,75.26
2023-02-08T10:29:27.695Z,75.17
2023-02-08T10:30:27.699Z,75.45
2023-02-08T10:31:27.715Z,75.93
2023-02-08T10:32:27.664Z,75.96
2023-02-08T10:33:27.667Z,76.34
2023-02-08T10:34:27.670Z,76.15
2023-02-08T10:35:27.671Z,76.10
2023-02-08T10:36:27.673Z,75.91
2023-02-08T10:37:27.689Z,75.34
2023-02-08T10:38:37.256Z,75.15
2023-02-08T10:39:27.687Z,74.96
2023-02-08T10:40:27.726Z,75.28
2023-02-08T10:41:27.697Z,75.38
2023-02-08T10:42:27.702Z,75.19
2023-02-08T10:43:27.708Z,74.66
2023-02-08T10:44:27.719Z,74.66
2023-02-08T10:45:27.724Z,74.03
2023-02-08T10:46:27.721Z,73.74
2023-02-08T10:47:27.729Z,73.74
2023-02-08T10:48:27.737Z,73.18
2023-02-08T10:49:27.748Z,73.02
2023-02-08T10:50:30.129Z,72.83
2023-02-08T10:51:27.761Z,72.45
2023-02-08T10:52:27.763Z,71.31
2023-02-08T10:53:27.769Z,71.50
2023-02-08T10:54:27.782Z,71.41
2023-02-08T10:55:27.793Z,71.02
2023-02-08T10:56:27.823Z,70.36
2023-02-08T10:57:27.807Z,70.58
2023-02-08T10:58:27.804Z,70.20
2023-02-08T11:00:15.368Z,69.44
2023-02-08T11:01:15.424Z,69.35
2023-02-08T11:02:15.380Z,68.87
2023-02-08T11:03:15.399Z,69.06
2023-02-08T11:04:15.444Z,68.81
2023-02-08T11:05:15.412Z,68.62
2023-02-08T11:06:15.420Z,67.95
2023-02-08T11:07:15.421Z,67.67
2023-02-08T11:08:15.432Z,67.57
2023-02-08T11:09:15.445Z,67.19
2023-02-08T11:10:15.467Z,67.19
2023-02-08T11:11:15.463Z,66.62
2023-02-08T11:12:15.504Z,66.97
2023-02-08T11:13:15.479Z,66.78
2023-02-08T11:14:15.481Z,66.24
2023-02-08T11:15:15.496Z,66.11
2023-02-08T11:17:01.100Z,66.02
2023-02-08T11:17:58.063Z,65.92
2023-02-08T11:18:58.077Z,66.43
2023-02-08T11:19:58.075Z,66.20
2023-02-08T11:20:58.693Z,66.33
2023-02-08T11:31:17.248Z,63.96
2023-02-08T11:32:17.215Z,64.34
2023-02-08T11:33:17.218Z,64.15
2023-02-08T11:34:17.224Z,64.43
2023-02-08T11:35:17.233Z,64.53
2023-02-08T11:36:17.259Z,63.86
2023-02-08T11:37:17.248Z,64.24
2023-02-08T11:38:17.252Z,63.86
2023-02-08T11:39:17.260Z,63.67
2023-02-08T11:40:17.278Z,63.48
2023-02-08T11:41:17.288Z,62.69
2023-02-08T11:42:17.289Z,62.88
2023-02-08T11:43:17.298Z,62.97
2023-02-08T11:44:17.318Z,63.32
2023-02-08T11:45:17.323Z,63.42
2023-02-08T11:46:17.386Z,63.89
2023-02-08T11:47:18.240Z,63.70
2023-02-08T11:48:17.344Z,63.60
2023-02-08T11:49:17.354Z,63.64
2023-02-08T11:50:17.362Z,63.73
2023-02-08T11:51:17.377Z,64.11
2023-02-08T11:52:17.390Z,64.11
2023-02-08T11:53:17.391Z,63.45
2023-02-08T11:54:17.732Z,64.31
2023-02-08T11:55:17.415Z,64.15
2023-02-08T12:10:46.495Z,62.88
2023-02-08T12:11:46.483Z,63.26
2023-02-08T12:12:46.485Z,62.59
2023-02-08T12:13:46.494Z,62.97
2023-02-08T12:14:46.501Z,62.88
2023-02-08T12:15:57.787Z,62.78
2023-02-08T13:24:43.297Z,66.01
2023-02-08T13:25:43.641Z,66.01
2023-02-08T13:26:43.287Z,65.63
2023-02-08T13:27:43.292Z,65.63
2023-02-08T13:28:43.304Z,65.92
2023-02-08T13:29:43.309Z,65.82
2023-02-08T13:30:43.691Z,66.08
2023-02-08T13:31:43.358Z,66.08
2023-02-08T13:32:44.267Z,66.36
2023-02-08T13:33:59.150Z,66.17
2023-02-08T13:34:43.350Z,66.17
2023-02-08T13:35:43.726Z,66.36
2023-02-08T13:36:43.395Z,66.55
2023-02-08T13:37:43.370Z,66.74
2023-02-08T13:38:43.388Z,66.46
2023-02-08T13:39:43.396Z,66.46
2023-02-08T13:40:43.812Z,66.83
2023-02-08T13:41:43.407Z,66.64
2023-02-08T13:42:43.440Z,66.99
2023-02-08T13:43:43.465Z,66.99
2023-02-08T13:47:44.361Z,67.33
2023-02-08T13:48:44.377Z,68.00
2023-02-08T13:49:44.377Z,68.38
2023-02-08T13:50:44.737Z,68.85
2023-02-08T13:51:44.400Z,68.95
2023-02-08T13:52:48.526Z,69.33
2023-02-08T13:53:44.457Z,69.20
2023-02-08T13:54:44.415Z,69.67
2023-02-08T13:55:44.733Z,70.24
2023-02-08T13:56:44.457Z,70.53
2023-02-08T13:57:44.431Z,70.72
2023-02-08T13:58:44.444Z,70.72
2023-02-08T13:59:44.442Z,71.09
2023-02-08T14:00:44.829Z,71.38
2023-02-08T14:01:44.475Z,71.95
2023-02-08T14:02:44.513Z,71.85
2023-02-08T14:03:44.465Z,72.48
2023-02-08T14:04:44.483Z,72.29
2023-02-08T14:05:44.823Z,72.86
2023-02-08T14:06:44.480Z,73.05
2023-02-08T14:07:44.492Z,73.14
2023-02-08T14:08:44.498Z,73.90
2023-02-08T14:09:44.495Z,73.43
2023-02-08T14:10:44.710Z,73.43
2023-02-08T14:11:44.501Z,73.90
2023-02-08T14:12:44.533Z,73.90
2023-02-08T14:13:44.518Z,73.94
2023-02-08T14:14:44.512Z,73.90
2023-02-08T14:15:44.847Z,73.90
2023-02-08T14:16:44.530Z,73.90
2023-02-08T14:17:44.524Z,74.09
2023-02-08T14:18:44.529Z,74.85
2023-02-08T14:19:44.547Z,74.85
2023-02-08T14:20:44.535Z,74.66
2023-02-08T14:21:44.567Z,74.95
2023-02-08T14:22:44.555Z,74.85
2023-02-08T14:23:44.552Z,75.04
2023-02-08T14:24:44.548Z,75.23
2023-02-08T14:25:44.896Z,75.13
2023-02-08T14:26:44.555Z,75.13
2023-02-08T14:27:44.588Z,75.51
2023-02-08T14:28:44.590Z,75.32
2023-02-08T14:29:44.572Z,75.51
2023-02-08T14:30:44.955Z,75.32
2023-02-08T14:31:44.644Z,75.42